Time;durP1;ratioP1;P1;durP2;ratioP2;P2;SDS_P1;SDS_P2;PMS_P1;PMS_P2;Temp;Humidity;BMP_temperature;BMP_pressure;BME280_temperature;BME280_humidity;BME280_pressure;Samples;Min_cycle;Max_cycle;Signal;HPM_P1;HPM_P2
2023/07/21 00:00:14;;;;;;;3.00;0.60;;;;;;;;;;5007399;28;20037;-46
2023/07/21 00:02:41;;;;;;;6.50;0.70;;;;;;;;;;5007016;28;20068;-46
2023/07/21 00:05:06;;;;;;;1.98;0.60;;;;;;;;;;5003718;28;20038;-46
2023/07/21 00:07:32;;;;;;;5.63;1.02;;;;;;;;;;5006483;28;20022;-46
2023/07/21 00:09:59;;;;;;;5.30;0.75;;;;;;;;;;4997554;28;20042;-46
2023/07/21 00:12:24;;;;;;;1.02;0.60;;;;;;;;;;5002012;28;20081;-46
2023/07/21 00:14:49;;;;;;;2.73;0.80;;;;;;;;;;5003844;28;20535;-46
2023/07/21 00:17:15;;;;;;;3.13;0.80;;;;;;;;;;5006597;28;20308;-47
2023/07/21 00:19:41;;;;;;;2.25;0.40;;;;;;;;;;5006865;28;20766;-45
2023/07/21 00:22:07;;;;;;;3.42;0.60;;;;;;;;;;5004078;28;20088;-46
2023/07/21 00:24:32;;;;;;;2.50;0.80;;;;;;;;;;5009441;28;20079;-45
2023/07/21 00:27:01;;;;;;;2.03;0.50;;;;;;;;;;5003112;28;20026;-45
2023/07/21 00:29:29;;;;;;;1.98;1.13;;;;;;;;;;5009210;28;20037;-46
2023/07/21 00:31:54;;;;;;;2.70;0.60;;;;;;;;;;4998222;28;20038;-46
2023/07/21 00:34:24;;;;;;;1.63;0.53;;;;;;;;;;4998686;28;20029;-46
2023/07/21 00:36:49;;;;;;;2.20;0.70;;;;;;;;;;5005734;28;20029;-46
2023/07/21 00:39:14;;;;;;;2.50;0.68;;;;;;;;;;5003634;28;20022;-46
2023/07/21 00:41:40;;;;;;;5.67;0.80;;;;;;;;;;5003314;28;20052;-46
2023/07/21 00:44:08;;;;;;;1.77;0.70;;;;;;;;;;5008912;28;20026;-46
2023/07/21 00:50:33;;;;;;;0.80;0.50;;;;;;;;;;5014199;27;1305208;-46
2023/07/21 00:52:58;;;;;;;2.22;0.80;;;;;;;;;;5056810;28;20025;-46
2023/07/21 00:55:24;;;;;;;1.85;0.70;;;;;;;;;;5061444;28;20094;-46
2023/07/21 00:57:49;;;;;;;1.25;0.60;;;;;;;;;;5061610;28;20030;-46
2023/07/21 01:00:15;;;;;;;1.85;0.60;;;;;;;;;;5055706;28;20031;-46
2023/07/21 01:02:40;;;;;;;1.38;0.57;;;;;;;;;;5058715;28;20021;-47
2023/07/21 01:05:06;;;;;;;1.60;0.80;;;;;;;;;;5058913;28;20029;-46
2023/07/21 01:07:33;;;;;;;3.78;1.02;;;;;;;;;;5052228;28;20035;-47
2023/07/21 01:09:58;;;;;;;4.15;0.90;;;;;;;;;;5060732;28;20056;-46
2023/07/21 01:12:24;;;;;;;1.83;1.30;;;;;;;;;;5064450;28;20064;-46
2023/07/21 01:14:49;;;;;;;0.82;0.32;;;;;;;;;;5061884;28;20369;-46
2023/07/21 01:17:15;;;;;;;4.22;0.80;;;;;;;;;;5058555;28;20021;-46
2023/07/21 01:19:41;;;;;;;1.23;0.68;;;;;;;;;;5060873;28;20037;-46
2023/07/21 01:22:09;;;;;;;2.40;0.88;;;;;;;;;;5060950;28;20039;-46
2023/07/21 01:25:00;;;;;;;2.17;0.82;;;;;;;;;;5051820;28;20517;-46
2023/07/21 01:27:25;;;;;;;1.45;0.60;;;;;;;;;;5058951;28;20430;-46
2023/07/21 01:29:51;;;;;;;2.38;0.70;;;;;;;;;;5056021;28;20023;-47
2023/07/21 01:32:21;;;;;;;2.30;0.80;;;;;;;;;;5058602;28;20029;-46
2023/07/21 01:34:47;;;;;;;3.50;0.65;;;;;;;;;;5042074;28;20121;-46
2023/07/21 01:37:13;;;;;;;2.10;0.60;;;;;;;;;;5056292;28;20104;-46
2023/07/21 01:39:39;;;;;;;2.83;1.00;;;;;;;;;;5059786;28;20028;-46
2023/07/21 01:42:05;;;;;;;2.70;1.10;;;;;;;;;;5059440;28;20032;-46
2023/07/21 01:44:30;;;;;;;2.08;0.98;;;;;;;;;;5056070;28;20037;-46
2023/07/21 01:46:55;;;;;;;2.38;1.00;;;;;;;;;;5053853;28;20036;-48
2023/07/21 01:49:21;;;;;;;2.87;0.73;;;;;;;;;;5056587;28;20043;-47
2023/07/21 01:51:47;;;;;;;1.20;0.47;;;;;;;;;;5052755;28;20020;-46
2023/07/21 01:54:21;;;;;;;1.55;0.70;;;;;;;;;;5050708;28;20749;-46
2023/07/21 01:56:49;;;;;;;2.50;0.90;;;;;;;;;;5058191;28;20013;-46
2023/07/21 01:59:15;;;;;;;1.88;0.73;;;;;;;;;;5057111;28;20063;-46
2023/07/21 02:01:41;;;;;;;1.55;0.77;;;;;;;;;;5044265;28;20364;-46
2023/07/21 02:04:07;;;;;;;3.30;0.80;;;;;;;;;;5038299;28;20031;-46
2023/07/21 02:06:32;;;;;;;2.65;0.70;;;;;;;;;;5036313;28;20037;-46
2023/07/21 02:08:57;;;;;;;2.28;0.75;;;;;;;;;;5044960;28;20116;-46
2023/07/21 02:11:24;;;;;;;2.28;0.73;;;;;;;;;;5045267;28;20033;-46
2023/07/21 02:13:49;;;;;;;3.53;1.35;;;;;;;;;;5042759;28;20017;-46
2023/07/21 02:16:15;;;;;;;3.25;0.82;;;;;;;;;;5044028;28;20400;-46
2023/07/21 02:18:41;;;;;;;1.30;0.80;;;;;;;;;;5028010;28;20440;-46
2023/07/21 02:21:06;;;;;;;2.03;0.80;;;;;;;;;;5035813;28;21068;-46
2023/07/21 02:23:32;;;;;;;1.20;0.60;;;;;;;;;;5044625;28;20499;-46
2023/07/21 02:25:58;;;;;;;2.90;0.93;;;;;;;;;;5043299;28;20271;-47
2023/07/21 02:28:23;;;;;;;1.13;0.43;;;;;;;;;;5044406;28;20029;-46
2023/07/21 02:30:56;;;;;;;3.00;0.90;;;;;;;;;;5027364;28;20028;-46
2023/07/21 02:33:22;;;;;;;2.65;1.10;;;;;;;;;;5033836;28;20268;-46
2023/07/21 02:35:47;;;;;;;2.73;0.90;;;;;;;;;;5033936;28;20036;-46
2023/07/21 02:38:12;;;;;;;3.33;1.10;;;;;;;;;;5043492;28;20271;-46
2023/07/21 02:40:37;;;;;;;2.90;1.13;;;;;;;;;;5043956;28;20272;-46
2023/07/21 02:43:03;;;;;;;3.43;1.00;;;;;;;;;;5048366;28;20020;-46
2023/07/21 02:45:28;;;;;;;3.63;1.20;;;;;;;;;;5044629;28;20494;-46
2023/07/21 02:47:53;;;;;;;3.13;1.02;;;;;;;;;;5045868;28;20029;-46
2023/07/21 02:50:19;;;;;;;2.30;0.83;;;;;;;;;;5037755;28;20037;-46
2023/07/21 02:52:44;;;;;;;5.20;0.90;;;;;;;;;;5024620;28;20275;-46
2023/07/21 02:55:09;;;;;;;2.72;0.88;;;;;;;;;;5036085;28;20132;-46
2023/07/21 02:57:35;;;;;;;2.13;1.00;;;;;;;;;;5032128;28;20656;-46
2023/07/21 03:00:03;;;;;;;3.78;0.93;;;;;;;;;;5039868;28;20283;-46
2023/07/21 03:02:28;;;;;;;1.83;0.88;;;;;;;;;;5041248;28;20051;-46
2023/07/21 03:04:54;;;;;;;1.80;0.93;;;;;;;;;;5040783;28;20671;-46
2023/07/21 03:07:19;;;;;;;3.67;1.00;;;;;;;;;;5041986;28;20027;-46
2023/07/21 03:09:45;;;;;;;3.28;1.13;;;;;;;;;;5039802;28;20491;-46
2023/07/21 03:12:10;;;;;;;5.20;0.80;;;;;;;;;;5025735;28;20104;-46
2023/07/21 03:14:35;;;;;;;2.00;0.90;;;;;;;;;;5041777;28;20278;-47
2023/07/21 03:17:00;;;;;;;2.70;0.93;;;;;;;;;;5042321;28;20267;-46
2023/07/21 03:19:28;;;;;;;3.00;0.87;;;;;;;;;;5039272;28;20271;-46
2023/07/21 03:21:54;;;;;;;1.65;0.88;;;;;;;;;;5039060;28;20034;-46
2023/07/21 03:24:19;;;;;;;5.35;0.90;;;;;;;;;;5042820;28;20021;-46
2023/07/21 03:26:44;;;;;;;3.70;0.87;;;;;;;;;;5042429;28;20509;-46
2023/07/21 03:29:10;;;;;;;2.60;1.30;;;;;;;;;;5033559;28;20283;-46
2023/07/21 03:31:35;;;;;;;2.57;0.87;;;;;;;;;;5042476;28;20078;-46
2023/07/21 03:34:00;;;;;;;3.15;1.02;;;;;;;;;;5038628;28;20022;-46
2023/07/21 03:36:25;;;;;;;2.50;0.83;;;;;;;;;;5041207;28;20033;-46
2023/07/21 03:38:51;;;;;;;4.40;1.30;;;;;;;;;;5039551;28;20283;-46
2023/07/21 03:41:16;;;;;;;3.23;0.97;;;;;;;;;;5042558;28;21709;-46
2023/07/21 03:43:42;;;;;;;3.33;1.27;;;;;;;;;;5044756;28;20021;-46
2023/07/21 03:46:08;;;;;;;3.20;1.20;;;;;;;;;;5037609;28;20374;-46
2023/07/21 03:48:34;;;;;;;1.63;1.00;;;;;;;;;;5039825;28;20079;-46
2023/07/21 03:51:02;;;;;;;2.80;1.02;;;;;;;;;;5044966;28;20235;-46
2023/07/21 03:53:28;;;;;;;4.07;1.00;;;;;;;;;;5045782;28;20024;-46
2023/07/21 03:55:54;;;;;;;2.10;1.10;;;;;;;;;;5044144;28;20866;-46
2023/07/21 03:58:19;;;;;;;3.88;0.77;;;;;;;;;;5027723;28;20082;-46
2023/07/21 04:00:45;;;;;;;2.40;1.02;;;;;;;;;;5040780;28;20060;-46
2023/07/21 04:03:11;;;;;;;3.97;1.20;;;;;;;;;;5031359;28;20029;-46
2023/07/21 04:05:36;;;;;;;4.68;1.20;;;;;;;;;;5045181;28;20021;-46
2023/07/21 04:08:02;;;;;;;3.13;1.40;;;;;;;;;;5039770;28;20025;-46
2023/07/21 04:10:27;;;;;;;2.42;1.10;;;;;;;;;;5029219;28;20274;-46
2023/07/21 04:12:52;;;;;;;2.70;1.20;;;;;;;;;;5037489;28;20029;-46
2023/07/21 04:15:18;;;;;;;5.43;1.23;;;;;;;;;;5041260;28;20022;-46
2023/07/21 04:17:43;;;;;;;2.60;1.13;;;;;;;;;;5042941;28;20021;-46
2023/07/21 04:20:10;;;;;;;2.88;1.55;;;;;;;;;;5036268;28;20030;-46
2023/07/21 04:22:35;;;;;;;6.07;1.75;;;;;;;;;;5033718;28;20033;-46
2023/07/21 04:25:00;;;;;;;4.22;1.30;;;;;;;;;;5040117;28;20030;-46
2023/07/21 04:27:28;;;;;;;4.47;1.42;;;;;;;;;;5028187;28;20140;-46
2023/07/21 04:29:54;;;;;;;3.88;1.88;;;;;;;;;;5037674;28;20029;-46
2023/07/21 04:32:19;;;;;;;3.47;1.85;;;;;;;;;;5034433;28;20021;-46
2023/07/21 04:34:45;;;;;;;3.40;1.50;;;;;;;;;;5045247;28;20017;-46
2023/07/21 04:37:10;;;;;;;5.10;1.40;;;;;;;;;;5028215;28;20284;-46
2023/07/21 04:39:35;;;;;;;4.40;1.70;;;;;;;;;;5042618;28;20025;-46
2023/07/21 04:42:01;;;;;;;4.72;2.42;;;;;;;;;;5035336;28;20078;-46
2023/07/21 04:44:26;;;;;;;5.40;1.85;;;;;;;;;;5041828;28;20025;-46
2023/07/21 04:46:51;;;;;;;4.43;1.77;;;;;;;;;;5040432;28;20078;-46
2023/07/21 04:49:17;;;;;;;4.82;1.80;;;;;;;;;;5043749;28;20318;-46
2023/07/21 04:51:42;;;;;;;4.15;1.70;;;;;;;;;;5034469;28;20029;-46
2023/07/21 04:54:07;;;;;;;2.80;1.50;;;;;;;;;;5034684;28;20021;-46
2023/07/21 04:56:33;;;;;;;3.70;1.90;;;;;;;;;;5033489;28;20276;-46
2023/07/21 04:58:58;;;;;;;4.10;1.95;;;;;;;;;;5031343;28;20791;-46
2023/07/21 05:01:24;;;;;;;4.15;1.23;;;;;;;;;;5028826;28;20029;-46
2023/07/21 05:03:49;;;;;;;3.13;1.50;;;;;;;;;;5040014;28;20044;-46
2023/07/21 05:06:15;;;;;;;1.85;1.05;;;;;;;;;;5039053;28;20592;-46
2023/07/21 05:08:40;;;;;;;3.50;1.40;;;;;;;;;;5039445;28;20033;-46
2023/07/21 05:11:09;;;;;;;1.90;1.10;;;;;;;;;;5023120;28;20290;-47
2023/07/21 05:13:35;;;;;;;2.80;1.33;;;;;;;;;;5035333;28;20106;-46
2023/07/21 05:16:00;;;;;;;2.50;1.65;;;;;;;;;;5024688;28;20125;-46
2023/07/21 05:18:26;;;;;;;7.90;1.70;;;;;;;;;;5041033;28;20170;-46
2023/07/21 05:20:51;;;;;;;4.07;1.20;;;;;;;;;;5038810;28;20039;-46
2023/07/21 05:23:17;;;;;;;1.93;1.20;;;;;;;;;;5026589;28;20021;-47
2023/07/21 05:25:42;;;;;;;3.58;1.20;;;;;;;;;;5028222;28;20303;-46
2023/07/21 05:28:08;;;;;;;2.40;1.77;;;;;;;;;;5041775;28;20025;-46
2023/07/21 05:30:34;;;;;;;2.45;1.00;;;;;;;;;;5045534;28;20271;-46
2023/07/21 05:32:59;;;;;;;2.75;1.10;;;;;;;;;;5041380;28;20087;-46
2023/07/21 05:35:26;;;;;;;4.32;1.30;;;;;;;;;;5038533;28;20622;-46
2023/07/21 05:37:52;;;;;;;4.63;1.10;;;;;;;;;;5045190;28;20721;-46
2023/07/21 05:40:18;;;;;;;3.25;1.20;;;;;;;;;;5036871;28;20475;-46
2023/07/21 05:42:46;;;;;;;3.08;1.00;;;;;;;;;;5045965;28;20398;-46
2023/07/21 05:45:11;;;;;;;6.28;1.38;;;;;;;;;;5043665;28;20055;-46
2023/07/21 05:47:37;;;;;;;4.72;1.48;;;;;;;;;;5042809;28;20119;-46
2023/07/21 05:50:02;;;;;;;3.30;1.10;;;;;;;;;;5044563;28;20052;-46
2023/07/21 05:52:28;;;;;;;2.78;1.30;;;;;;;;;;5041067;28;20107;-46
2023/07/21 05:54:53;;;;;;;3.20;1.40;;;;;;;;;;5043404;28;20010;-46
2023/07/21 05:57:19;;;;;;;4.90;1.30;;;;;;;;;;5039627;28;20067;-46
2023/07/21 05:59:45;;;;;;;2.47;1.33;;;;;;;;;;5041177;28;20017;-46
2023/07/21 06:02:10;;;;;;;3.35;1.20;;;;;;;;;;5035820;28;20402;-46
2023/07/21 06:04:36;;;;;;;4.00;1.15;;;;;;;;;;5047278;28;20024;-46
2023/07/21 06:07:01;;;;;;;3.30;1.20;;;;;;;;;;5041242;28;20079;-46
2023/07/21 06:09:26;;;;;;;2.38;1.10;;;;;;;;;;5030037;28;20082;-46
2023/07/21 06:11:52;;;;;;;2.80;1.02;;;;;;;;;;5036356;28;20045;-46
2023/07/21 06:14:17;;;;;;;1.67;0.83;;;;;;;;;;5027948;28;20859;-46
2023/07/21 06:16:42;;;;;;;2.67;1.20;;;;;;;;;;5042417;28;20098;-46
2023/07/21 06:19:07;;;;;;;4.03;1.27;;;;;;;;;;5035711;28;21935;-46
2023/07/21 06:21:33;;;;;;;2.00;1.00;;;;;;;;;;5012437;28;20279;-46
2023/07/21 06:23:58;;;;;;;5.07;1.23;;;;;;;;;;5044477;28;20279;-46
2023/07/21 06:26:23;;;;;;;4.13;1.10;;;;;;;;;;5045617;28;20033;-46
2023/07/21 06:28:50;;;;;;;5.77;1.10;;;;;;;;;;5042071;28;20033;-46
2023/07/21 06:31:16;;;;;;;6.38;2.17;;;;;;;;;;5044081;28;20275;-46
2023/07/21 06:33:41;;;;;;;2.58;1.25;;;;;;;;;;5049239;28;20032;-46
2023/07/21 06:36:06;;;;;;;2.10;0.90;;;;;;;;;;5026227;28;20017;-46
2023/07/21 06:38:31;;;;;;;2.23;1.07;;;;;;;;;;5032961;28;21121;-46
2023/07/21 06:40:57;;;;;;;2.40;0.87;;;;;;;;;;5033005;28;20271;-46
2023/07/21 06:43:22;;;;;;;4.95;1.02;;;;;;;;;;5039836;28;20283;-46
2023/07/21 06:45:47;;;;;;;3.25;1.08;;;;;;;;;;5041872;28;20457;-46
2023/07/21 06:48:13;;;;;;;1.90;1.35;;;;;;;;;;5047724;28;20032;-47
2023/07/21 06:50:38;;;;;;;4.25;1.13;;;;;;;;;;5044448;28;20029;-46
2023/07/21 06:53:05;;;;;;;3.60;1.20;;;;;;;;;;5034997;28;20036;-46
2023/07/21 06:55:31;;;;;;;4.97;1.10;;;;;;;;;;5044890;28;21811;-46
2023/07/21 06:57:56;;;;;;;3.45;1.00;;;;;;;;;;5041903;28;20174;-46
2023/07/21 07:00:23;;;;;;;3.53;1.10;;;;;;;;;;5035562;28;20483;-46
2023/07/21 07:02:49;;;;;;;2.42;0.90;;;;;;;;;;5044460;28;20092;-46
2023/07/21 07:05:15;;;;;;;2.80;0.80;;;;;;;;;;5033876;28;20423;-46
2023/07/21 07:07:40;;;;;;;3.10;0.70;;;;;;;;;;5034273;28;20017;-46
2023/07/21 07:10:06;;;;;;;3.30;0.98;;;;;;;;;;5038198;28;20060;-46
2023/07/21 07:12:32;;;;;;;7.45;2.90;;;;;;;;;;5029513;28;20041;-46
2023/07/21 07:14:58;;;;;;;5.72;1.20;;;;;;;;;;5024853;28;20029;-47
2023/07/21 07:17:24;;;;;;;4.20;1.95;;;;;;;;;;5031140;28;20031;-46
2023/07/21 07:19:49;;;;;;;5.32;1.40;;;;;;;;;;5034198;28;20025;-46
2023/07/21 07:22:14;;;;;;;4.70;1.20;;;;;;;;;;5027934;28;20407;-46
2023/07/21 07:24:40;;;;;;;10.02;2.65;;;;;;;;;;5039420;28;20025;-47
2023/07/21 07:27:05;;;;;;;3.65;1.25;;;;;;;;;;5039459;28;20017;-46
2023/07/21 07:29:30;;;;;;;3.97;1.10;;;;;;;;;;5041215;28;20056;-47
2023/07/21 07:31:55;;;;;;;4.43;1.35;;;;;;;;;;5031834;28;20276;-46
2023/07/21 07:34:21;;;;;;;4.13;1.07;;;;;;;;;;5042108;28;20103;-46
2023/07/21 07:36:46;;;;;;;7.90;1.27;;;;;;;;;;5041523;28;20029;-46
2023/07/21 07:39:11;;;;;;;7.30;2.60;;;;;;;;;;5038013;28;20935;-46
2023/07/21 07:41:37;;;;;;;6.32;1.20;;;;;;;;;;5039102;28;20291;-47
2023/07/21 07:44:03;;;;;;;2.60;0.90;;;;;;;;;;5043662;28;20098;-46
2023/07/21 07:46:28;;;;;;;4.03;1.08;;;;;;;;;;5044800;28;20112;-46
2023/07/21 07:48:53;;;;;;;2.40;0.70;;;;;;;;;;5045155;28;20063;-46
2023/07/21 07:51:18;;;;;;;3.47;1.00;;;;;;;;;;5041974;28;20353;-46
2023/07/21 07:53:44;;;;;;;3.50;0.67;;;;;;;;;;5039696;28;20021;-46
2023/07/21 07:56:12;;;;;;;1.20;0.40;;;;;;;;;;5035674;28;20765;-46
2023/07/21 07:58:38;;;;;;;4.13;1.73;;;;;;;;;;5033215;28;20373;-46
2023/07/21 08:01:03;;;;;;;3.37;0.93;;;;;;;;;;5028186;28;20111;-47
2023/07/21 08:03:29;;;;;;;4.57;1.10;;;;;;;;;;5029320;28;20029;-46
2023/07/21 08:05:54;;;;;;;3.03;0.80;;;;;;;;;;5037495;28;20112;-46
2023/07/21 08:08:22;;;;;;;4.70;1.05;;;;;;;;;;5039100;28;20162;-46
2023/07/21 08:10:47;;;;;;;2.17;0.77;;;;;;;;;;5032891;28;20525;-46
2023/07/21 08:13:13;;;;;;;3.10;0.80;;;;;;;;;;5036171;28;20042;-46
2023/07/21 08:15:40;;;;;;;2.72;0.88;;;;;;;;;;5028013;28;20021;-46
2023/07/21 08:18:05;;;;;;;4.10;1.00;;;;;;;;;;5037126;28;20029;-46
2023/07/21 08:20:30;;;;;;;2.63;1.00;;;;;;;;;;5047732;28;20497;-46
2023/07/21 08:22:55;;;;;;;2.33;0.70;;;;;;;;;;5034655;28;20061;-46
2023/07/21 08:25:21;;;;;;;3.73;1.70;;;;;;;;;;5043973;28;20274;-47
2023/07/21 08:27:46;;;;;;;5.13;1.25;;;;;;;;;;5044746;28;20025;-47
2023/07/21 08:30:11;;;;;;;6.95;1.13;;;;;;;;;;5045712;28;20096;-46
2023/07/21 08:32:38;;;;;;;4.38;1.05;;;;;;;;;;5043036;28;20155;-47
2023/07/21 08:35:04;;;;;;;3.65;1.27;;;;;;;;;;5044526;28;20028;-46
2023/07/21 08:37:30;;;;;;;2.97;0.80;;;;;;;;;;5045227;28;20025;-46
2023/07/21 08:39:55;;;;;;;2.22;0.80;;;;;;;;;;5036152;28;20155;-46
2023/07/21 08:42:21;;;;;;;2.65;0.88;;;;;;;;;;5040646;28;20103;-46
2023/07/21 08:44:47;;;;;;;3.70;1.33;;;;;;;;;;5044107;28;20025;-46
2023/07/21 08:47:13;;;;;;;4.05;1.73;;;;;;;;;;5038849;28;20375;-46
2023/07/21 08:49:40;;;;;;;13.43;5.93;;;;;;;;;;5030361;28;20718;-46
2023/07/21 08:52:06;;;;;;;3.85;1.00;;;;;;;;;;5033080;28;20478;-47
2023/07/21 08:54:31;;;;;;;5.13;1.00;;;;;;;;;;5019605;28;20025;-46
2023/07/21 08:56:56;;;;;;;1.13;0.67;;;;;;;;;;5037585;28;20021;-46
2023/07/21 08:59:21;;;;;;;2.07;0.70;;;;;;;;;;5041150;28;20279;-46
2023/07/21 09:01:47;;;;;;;2.03;0.93;;;;;;;;;;5020190;28;20283;-47
2023/07/21 09:04:17;;;;;;;3.03;0.90;;;;;;;;;;5034415;28;20022;-47
2023/07/21 09:06:47;;;;;;;5.43;1.27;;;;;;;;;;5037454;28;20083;-46
2023/07/21 09:09:16;;;;;;;3.20;0.60;;;;;;;;;;5034706;28;20017;-46
2023/07/21 09:11:41;;;;;;;3.10;0.75;;;;;;;;;;5029609;28;20112;-46
2023/07/21 09:14:07;;;;;;;3.17;1.30;;;;;;;;;;5046708;28;20031;-46
2023/07/21 09:16:32;;;;;;;5.33;1.20;;;;;;;;;;5048712;28;20487;-46
2023/07/21 09:18:58;;;;;;;3.00;0.95;;;;;;;;;;5047077;28;20267;-46
2023/07/21 09:21:23;;;;;;;7.77;2.30;;;;;;;;;;5046043;28;20479;-46
2023/07/21 09:23:49;;;;;;;6.60;0.90;;;;;;;;;;5047756;28;20355;-46
2023/07/21 09:26:21;;;;;;;1.88;0.90;;;;;;;;;;5049457;28;20372;-46
2023/07/21 09:28:47;;;;;;;4.03;0.80;;;;;;;;;;5038922;28;20025;-46
2023/07/21 09:31:13;;;;;;;2.72;0.85;;;;;;;;;;5047452;28;20017;-46
2023/07/21 09:33:39;;;;;;;3.00;0.70;;;;;;;;;;5045463;28;20120;-46
2023/07/21 09:36:08;;;;;;;3.33;0.95;;;;;;;;;;5048421;28;20009;-47
2023/07/21 09:38:34;;;;;;;5.75;1.30;;;;;;;;;;5042205;28;20020;-47
2023/07/21 09:41:07;;;;;;;4.20;1.05;;;;;;;;;;5044655;28;20031;-46
2023/07/21 09:43:33;;;;;;;2.45;1.10;;;;;;;;;;5038312;28;20064;-46
2023/07/21 09:45:59;;;;;;;5.25;0.80;;;;;;;;;;5040137;28;20631;-46
2023/07/21 09:48:25;;;;;;;2.05;1.13;;;;;;;;;;5043743;28;20021;-46
2023/07/21 09:50:51;;;;;;;5.35;1.30;;;;;;;;;;5044632;28;20475;-47
2023/07/21 09:53:20;;;;;;;3.08;0.60;;;;;;;;;;5046335;28;20079;-47
2023/07/21 09:55:48;;;;;;;4.75;1.02;;;;;;;;;;5047099;28;20465;-47
2023/07/21 09:58:14;;;;;;;6.80;1.15;;;;;;;;;;5041040;28;20045;-46
2023/07/21 10:00:39;;;;;;;7.72;2.90;;;;;;;;;;5039307;28;20075;-46
2023/07/21 10:03:07;;;;;;;3.00;1.30;;;;;;;;;;5042744;28;20024;-46
2023/07/21 10:05:33;;;;;;;5.88;1.30;;;;;;;;;;5046626;28;20048;-47
2023/07/21 10:08:00;;;;;;;6.22;3.30;;;;;;;;;;5031436;28;20028;-46
2023/07/21 10:10:25;;;;;;;15.25;6.57;;;;;;;;;;5042424;28;20094;-46
2023/07/21 10:12:52;;;;;;;4.93;1.05;;;;;;;;;;5042085;28;20020;-46
2023/07/21 10:15:30;;;;;;;4.28;1.10;;;;;;;;;;5040030;28;20112;-47
2023/07/21 10:17:58;;;;;;;3.50;1.20;;;;;;;;;;5047449;28;20112;-47
2023/07/21 10:20:37;;;;;;;3.45;0.90;;;;;;;;;;5034687;28;20390;-47
2023/07/21 10:23:02;;;;;;;4.43;1.27;;;;;;;;;;5042994;28;20060;-46
2023/07/21 10:25:27;;;;;;;4.07;1.20;;;;;;;;;;5049953;28;20033;-47
2023/07/21 10:28:11;;;;;;;2.35;1.05;;;;;;;;;;5039180;28;20378;-47
2023/07/21 10:30:36;;;;;;;3.88;0.90;;;;;;;;;;5035167;28;20036;-46
2023/07/21 10:33:11;;;;;;;5.05;1.30;;;;;;;;;;5039798;28;20032;-47
2023/07/21 10:35:38;;;;;;;6.53;1.33;;;;;;;;;;5043640;28;20036;-46
2023/07/21 10:38:15;;;;;;;4.28;1.50;;;;;;;;;;5038841;28;20036;-46
2023/07/21 10:40:44;;;;;;;4.80;3.22;;;;;;;;;;5039728;28;20025;-47
2023/07/21 10:43:10;;;;;;;4.38;1.23;;;;;;;;;;5037097;28;20372;-47
2023/07/21 10:45:35;;;;;;;4.13;1.50;;;;;;;;;;5045594;28;20036;-47
2023/07/21 10:48:15;;;;;;;3.13;1.30;;;;;;;;;;5039119;28;20024;-46
2023/07/21 10:50:58;;;;;;;4.35;1.58;;;;;;;;;;5036420;28;20287;-46
2023/07/21 10:53:24;;;;;;;5.50;2.20;;;;;;;;;;5030751;28;20040;-47
2023/07/21 10:55:54;;;;;;;6.88;1.95;;;;;;;;;;5044627;28;20051;-46
2023/07/21 10:58:20;;;;;;;7.15;2.08;;;;;;;;;;5039155;28;20079;-46
2023/07/21 11:00:46;;;;;;;5.85;2.30;;;;;;;;;;5034764;28;20029;-46
2023/07/21 11:03:11;;;;;;;4.25;2.22;;;;;;;;;;5041891;28;20025;-47
2023/07/21 11:05:36;;;;;;;6.83;2.60;;;;;;;;;;5028784;28;20036;-46
2023/07/21 11:08:02;;;;;;;5.90;2.20;;;;;;;;;;5039204;28;20735;-47
2023/07/21 11:10:34;;;;;;;5.53;2.53;;;;;;;;;;5036328;28;20828;-46
2023/07/21 11:13:00;;;;;;;3.78;2.15;;;;;;;;;;5033736;28;20024;-46
2023/07/21 11:15:26;;;;;;;4.05;2.05;;;;;;;;;;5035581;28;20143;-47
2023/07/21 11:18:01;;;;;;;5.80;3.37;;;;;;;;;;5038334;28;21175;-47
2023/07/21 11:20:26;;;;;;;8.25;2.40;;;;;;;;;;5039439;28;20634;-46
2023/07/21 11:22:53;;;;;;;5.82;2.65;;;;;;;;;;5045836;28;20038;-46
2023/07/21 11:25:18;;;;;;;5.22;2.38;;;;;;;;;;5043915;28;20029;-46
2023/07/21 11:27:44;;;;;;;4.47;2.33;;;;;;;;;;5046445;28;20146;-46
2023/07/21 11:30:10;;;;;;;5.35;1.55;;;;;;;;;;5045765;28;20425;-46
2023/07/21 11:32:35;;;;;;;3.88;2.15;;;;;;;;;;5045914;28;20029;-46
2023/07/21 11:35:03;;;;;;;5.00;2.23;;;;;;;;;;5030963;28;20028;-46
2023/07/21 11:37:38;;;;;;;3.80;1.80;;;;;;;;;;5042883;28;20372;-46
2023/07/21 11:40:26;;;;;;;4.28;1.63;;;;;;;;;;5043658;28;20025;-46
2023/07/21 11:42:49;;;;;;;4.18;1.85;;;;;;;;;;5039197;28;20041;-46
2023/07/21 11:45:33;;;;;;;3.70;1.63;;;;;;;;;;5036762;28;20380;-46
2023/07/21 11:47:59;;;;;;;2.28;1.35;;;;;;;;;;5038718;28;20029;-46
2023/07/21 11:50:24;;;;;;;4.82;1.48;;;;;;;;;;5044527;28;20102;-46
2023/07/21 11:52:49;;;;;;;3.00;1.73;;;;;;;;;;5036911;28;20085;-46
2023/07/21 11:55:14;;;;;;;2.70;1.50;;;;;;;;;;5040452;28;20271;-46
2023/07/21 11:57:40;;;;;;;5.57;1.90;;;;;;;;;;5035239;28;20312;-46
2023/07/21 12:00:11;;;;;;;7.80;2.20;;;;;;;;;;5039552;28;20298;-47
2023/07/21 12:02:36;;;;;;;3.70;1.70;;;;;;;;;;5044341;28;20028;-47
2023/07/21 12:05:03;;;;;;;3.63;1.48;;;;;;;;;;5038638;28;20029;-47
2023/07/21 12:07:29;;;;;;;4.40;1.85;;;;;;;;;;5041873;28;20124;-47
2023/07/21 12:09:54;;;;;;;11.33;1.77;;;;;;;;;;5031331;28;20112;-46
2023/07/21 12:12:20;;;;;;;4.18;1.60;;;;;;;;;;5035022;28;20279;-46
2023/07/21 12:14:45;;;;;;;4.13;1.60;;;;;;;;;;5038289;28;20043;-46
2023/07/21 12:17:14;;;;;;;5.37;1.53;;;;;;;;;;5037791;28;20025;-46
2023/07/21 12:19:40;;;;;;;4.40;1.52;;;;;;;;;;5040628;28;20286;-47
2023/07/21 12:22:06;;;;;;;3.45;1.40;;;;;;;;;;5041899;28;20108;-46
2023/07/21 12:24:31;;;;;;;3.25;1.30;;;;;;;;;;5042459;28;20422;-46
2023/07/21 12:26:56;;;;;;;5.03;1.80;;;;;;;;;;5041656;28;20487;-47
2023/07/21 12:29:22;;;;;;;4.63;1.43;;;;;;;;;;5037602;28;20471;-46
2023/07/21 12:31:47;;;;;;;5.00;1.90;;;;;;;;;;5022665;28;20144;-46
2023/07/21 12:34:12;;;;;;;6.30;2.50;;;;;;;;;;5033049;28;20075;-47
2023/07/21 12:36:38;;;;;;;2.92;1.63;;;;;;;;;;5041903;28;20024;-46
2023/07/21 12:39:10;;;;;;;4.22;1.70;;;;;;;;;;5031671;28;20048;-47
2023/07/21 12:41:36;;;;;;;4.03;1.75;;;;;;;;;;5034445;28;20029;-47
2023/07/21 12:44:01;;;;;;;5.68;1.85;;;;;;;;;;5043317;28;20024;-46
2023/07/21 12:46:26;;;;;;;3.15;1.77;;;;;;;;;;5040579;28;20056;-46
2023/07/21 12:48:52;;;;;;;5.03;1.92;;;;;;;;;;5041304;28;20029;-46
2023/07/21 12:51:17;;;;;;;6.20;2.00;;;;;;;;;;5040758;28;20039;-47
2023/07/21 12:53:43;;;;;;;5.28;1.70;;;;;;;;;;5044089;28;20053;-46
2023/07/21 12:56:08;;;;;;;5.78;1.73;;;;;;;;;;5036497;28;20032;-47
2023/07/21 12:58:33;;;;;;;3.30;1.38;;;;;;;;;;5041702;28;20098;-47
2023/07/21 13:00:59;;;;;;;5.10;1.80;;;;;;;;;;5031197;28;20117;-46
2023/07/21 13:03:24;;;;;;;2.90;1.73;;;;;;;;;;5041839;28;20063;-46
2023/07/21 13:05:49;;;;;;;2.87;1.20;;;;;;;;;;5040682;28;20021;-45
2023/07/21 13:08:14;;;;;;;4.20;1.10;;;;;;;;;;5033202;28;20350;-46
2023/07/21 13:10:40;;;;;;;1.90;1.05;;;;;;;;;;5040430;28;20700;-46
2023/07/21 13:13:05;;;;;;;2.15;1.20;;;;;;;;;;5024815;28;20032;-46
2023/07/21 13:15:31;;;;;;;7.10;1.70;;;;;;;;;;5020249;28;20021;-47
2023/07/21 13:17:56;;;;;;;4.15;1.75;;;;;;;;;;5029012;28;20036;-46
2023/07/21 13:20:22;;;;;;;2.25;1.35;;;;;;;;;;5045378;28;20480;-46
2023/07/21 13:22:47;;;;;;;5.45;1.45;;;;;;;;;;5036064;28;20063;-46
2023/07/21 13:25:13;;;;;;;3.97;1.57;;;;;;;;;;5021955;28;20053;-46
2023/07/21 13:27:38;;;;;;;8.00;3.30;;;;;;;;;;5031824;28;20270;-47
2023/07/21 13:30:04;;;;;;;7.07;2.40;;;;;;;;;;5030460;28;20303;-46
2023/07/21 13:32:30;;;;;;;4.32;1.88;;;;;;;;;;5028482;28;20113;-46
2023/07/21 13:34:55;;;;;;;3.28;1.58;;;;;;;;;;5031240;28;20032;-46
2023/07/21 13:37:21;;;;;;;2.65;1.00;;;;;;;;;;5040487;28;20100;-46
2023/07/21 13:39:46;;;;;;;3.70;1.50;;;;;;;;;;5039717;28;20108;-46
2023/07/21 13:42:12;;;;;;;11.65;5.93;;;;;;;;;;5039800;28;20021;-47
2023/07/21 13:44:38;;;;;;;26.83;14.88;;;;;;;;;;5045123;28;20060;-46
2023/07/21 13:47:03;;;;;;;9.70;5.70;;;;;;;;;;5019761;28;20152;-46
2023/07/21 13:49:29;;;;;;;4.75;1.88;;;;;;;;;;5030035;28;20809;-46
2023/07/21 13:51:54;;;;;;;4.45;1.25;;;;;;;;;;5031209;28;20018;-47
2023/07/21 13:54:20;;;;;;;3.17;1.40;;;;;;;;;;5033367;28;20021;-46
2023/07/21 13:56:45;;;;;;;3.45;1.60;;;;;;;;;;5038098;28;20379;-46
2023/07/21 13:59:11;;;;;;;3.80;1.70;;;;;;;;;;5045243;28;20163;-47
2023/07/21 14:01:36;;;;;;;2.87;1.40;;;;;;;;;;5042012;28;20310;-46
2023/07/21 14:04:01;;;;;;;3.75;1.38;;;;;;;;;;5040022;28;20646;-46
2023/07/21 14:06:26;;;;;;;3.10;1.50;;;;;;;;;;5044389;28;22577;-46
2023/07/21 14:08:52;;;;;;;3.78;1.50;;;;;;;;;;5038615;28;20329;-48
2023/07/21 14:11:17;;;;;;;5.38;2.10;;;;;;;;;;5022028;28;20052;-46
2023/07/21 14:13:42;;;;;;;3.83;1.80;;;;;;;;;;5028278;28;20043;-46
2023/07/21 14:16:09;;;;;;;4.60;1.77;;;;;;;;;;5035826;28;20272;-47
2023/07/21 14:18:34;;;;;;;5.28;1.65;;;;;;;;;;5037720;28;20024;-46
2023/07/21 14:20:59;;;;;;;2.63;1.65;;;;;;;;;;5040592;28;20033;-47
2023/07/21 14:23:25;;;;;;;3.43;1.40;;;;;;;;;;5042555;28;20028;-46
2023/07/21 14:25:50;;;;;;;2.75;1.30;;;;;;;;;;5041682;28;20276;-46
2023/07/21 14:28:16;;;;;;;3.20;1.60;;;;;;;;;;5037385;28;20021;-47
2023/07/21 14:30:41;;;;;;;4.70;1.67;;;;;;;;;;5028274;28;20538;-47
2023/07/21 14:33:07;;;;;;;1.63;1.10;;;;;;;;;;5024266;28;20298;-47
2023/07/21 14:35:32;;;;;;;2.45;1.13;;;;;;;;;;5034601;28;20040;-46
2023/07/21 14:37:57;;;;;;;2.28;1.23;;;;;;;;;;5038509;28;20104;-47
2023/07/21 14:40:23;;;;;;;3.07;1.20;;;;;;;;;;5030169;28;20108;-47